Tain, United Kingdom
Current Conditions -  °F | °C
As of 2:20 AM on Sunday 23 Nov 2014 (Local Time) from EGPE Reporting Station
Clear Clear  
Wind Chill: 31°   Ceiling: Unl
Heat Index: 37°   Visibility: 6mi
Dew Point: 37°   Wind: 9mph
Humidity: 100%   Direction: 250°WSW
Pressure: 29.91"   Gusts: NA
Location:  57.81°N, 4.06°W
Report Text: EGPE 230220Z AUTO 25008KT 9999 NCD 03/03 Q1013
Loading
Personal Weather Stations






























Interactive Weather Map New forecast layout! Learn more

10-Day Weather Forecast

Advertisements
Track Severe Weather on mobile